createdAt,value
2017-07-01T19:42:41.989Z,84.00
2017-07-01T19:45:10.454Z,86.80
2017-07-01T19:47:38.886Z,85.60
2017-07-01T19:50:07.309Z,86.40
2017-07-01T19:52:35.767Z,84.80
2017-07-01T19:55:04.190Z,84.80
2017-07-01T19:57:32.626Z,85.20
2017-07-01T20:00:01.086Z,85.50
2017-07-01T20:02:29.565Z,85.60
2017-07-01T20:04:57.984Z,85.80
2017-07-01T20:07:26.450Z,85.60
2017-07-01T20:09:54.922Z,87.30
2017-07-01T20:12:23.344Z,88.70
2017-07-01T20:14:51.833Z,86.80
2017-07-01T20:17:20.302Z,86.10
2017-07-01T20:19:48.749Z,85.80
2017-07-01T20:22:17.297Z,85.30
2017-07-01T20:24:45.752Z,85.70
2017-07-01T20:27:14.191Z,85.40
2017-07-01T20:29:42.639Z,85.50
2017-07-01T20:32:11.081Z,85.90
2017-07-01T20:34:39.510Z,85.30
2017-07-01T20:37:07.982Z,84.90
2017-07-01T20:39:36.406Z,85.60
2017-07-01T20:42:04.842Z,86.10
2017-07-01T20:44:33.315Z,85.20
2017-07-01T20:47:01.774Z,85.80
2017-07-01T20:49:30.184Z,88.40
2017-07-01T20:51:58.663Z,89.30
2017-07-01T20:54:27.119Z,88.20
2017-07-01T20:56:55.541Z,87.60
2017-07-01T20:59:24.008Z,88.00
2017-07-01T21:01:52.442Z,87.20
2017-07-01T21:04:20.875Z,87.40
2017-07-01T21:06:49.358Z,88.60
2017-07-01T21:09:17.778Z,88.30
2017-07-01T21:11:46.220Z,89.90
2017-07-01T21:14:14.830Z,90.10
2017-07-01T21:16:43.250Z,89.30
2017-07-01T21:19:11.678Z,88.60
2017-07-01T21:21:40.131Z,88.50
2017-07-01T21:24:08.602Z,88.80
2017-07-01T21:26:37.035Z,88.40
2017-07-01T21:29:05.497Z,88.50
2017-07-01T21:31:33.946Z,88.30
2017-07-01T21:34:02.367Z,88.90
2017-07-01T21:36:30.807Z,88.80
2017-07-01T21:38:59.987Z,89.40
2017-07-01T21:41:28.430Z,89.30
2017-07-01T21:43:56.949Z,88.70
2017-07-01T21:46:25.359Z,89.00
2017-07-01T21:48:53.787Z,88.70
2017-07-01T21:51:22.266Z,88.50
2017-07-01T21:53:50.694Z,87.20
2017-07-01T21:56:19.166Z,87.00
2017-07-01T21:58:48.388Z,89.00
2017-07-01T22:01:16.816Z,89.00
2017-07-01T22:03:45.329Z,88.40
2017-07-01T22:06:13.789Z,89.10
2017-07-01T22:08:42.226Z,88.90
2017-07-01T22:11:10.668Z,89.80
2017-07-01T22:13:39.955Z,89.90
2017-07-01T22:16:09.163Z,90.90
2017-07-01T22:18:37.582Z,90.80
2017-07-01T22:21:06.047Z,90.40
2017-07-01T22:23:34.468Z,89.30
2017-07-01T22:26:02.887Z,89.20
2017-07-01T22:28:31.326Z,88.70
2017-07-01T22:30:59.753Z,88.90
2017-07-01T22:33:28.175Z,89.90
2017-07-01T22:35:56.632Z,90.10
2017-07-01T22:38:25.821Z,88.70
2017-07-01T22:40:54.254Z,88.60
2017-07-01T22:43:22.704Z,89.20
2017-07-01T22:45:51.162Z,89.30
2017-07-01T22:48:19.593Z,89.50
2017-07-01T22:50:48.070Z,90.10
2017-07-01T22:53:16.510Z,90.00
2017-07-01T22:55:45.702Z,89.50
2017-07-01T22:58:14.141Z,89.50
2017-07-01T23:00:42.574Z,90.10
2017-07-01T23:03:13.468Z,90.50
2017-07-01T23:05:41.902Z,90.10
2017-07-01T23:08:10.327Z,90.00
2017-07-01T23:10:38.774Z,88.70
2017-07-01T23:13:07.269Z,88.70
2017-07-01T23:15:35.718Z,89.20
2017-07-01T23:18:04.134Z,90.20
2017-07-01T23:20:32.874Z,89.70
2017-07-01T23:23:01.302Z,90.60
2017-07-01T23:25:29.982Z,90.80
2017-07-01T23:27:58.443Z,90.20
2017-07-01T23:30:27.646Z,90.00
2017-07-01T23:32:56.060Z,90.00
2017-07-01T23:35:24.502Z,90.30
2017-07-01T23:37:52.914Z,90.50
2017-07-01T23:40:21.333Z,90.60
2017-07-01T23:42:50.065Z,90.40
2017-07-01T23:45:18.498Z,91.50
2017-07-01T23:47:47.186Z,91.40
2017-07-01T23:50:15.682Z,91.00
2017-07-01T23:52:44.123Z,90.70
2017-07-01T23:55:12.566Z,91.00
2017-07-01T23:57:41.105Z,91.20
